sensor_id;sensor_type;location;lat;lon;timestamp;P1;durP1;ratioP1;P2;durP2;ratioP2
33270;SDS011;53180;51.344;6.152;2022-07-30T00:00:34;3.67;;;2.28;;
33270;SDS011;53180;51.344;6.152;2022-07-30T00:03:02;3.63;;;2.58;;
33270;SDS011;53180;51.344;6.152;2022-07-30T00:05:32;3.70;;;2.28;;
33270;SDS011;53180;51.344;6.152;2022-07-30T00:08:00;4.60;;;2.97;;
33270;SDS011;53180;51.344;6.152;2022-07-30T00:10:28;4.43;;;2.35;;
33270;SDS011;53180;51.344;6.152;2022-07-30T00:12:57;5.63;;;2.55;;
33270;SDS011;53180;51.344;6.152;2022-07-30T00:15:25;2.53;;;2.00;;
33270;SDS011;53180;51.344;6.152;2022-07-30T00:17:54;4.07;;;2.75;;
33270;SDS011;53180;51.344;6.152;2022-07-30T00:20:22;6.22;;;2.95;;
33270;SDS011;53180;51.344;6.152;2022-07-30T00:22:54;5.03;;;2.47;;
33270;SDS011;53180;51.344;6.152;2022-07-30T00:25:23;4.68;;;2.50;;
33270;SDS011;53180;51.344;6.152;2022-07-30T00:27:52;3.50;;;2.15;;
33270;SDS011;53180;51.344;6.152;2022-07-30T00:30:20;4.13;;;2.22;;
33270;SDS011;53180;51.344;6.152;2022-07-30T00:32:49;4.72;;;2.75;;
33270;SDS011;53180;51.344;6.152;2022-07-30T00:35:17;3.38;;;2.53;;
33270;SDS011;53180;51.344;6.152;2022-07-30T00:37:45;5.05;;;2.38;;
33270;SDS011;53180;51.344;6.152;2022-07-30T00:40:15;3.17;;;2.42;;
33270;SDS011;53180;51.344;6.152;2022-07-30T00:42:44;3.30;;;2.50;;
33270;SDS011;53180;51.344;6.152;2022-07-30T00:45:14;4.23;;;2.63;;
33270;SDS011;53180;51.344;6.152;2022-07-30T00:47:44;4.72;;;2.67;;
33270;SDS011;53180;51.344;6.152;2022-07-30T00:50:13;4.10;;;2.97;;
33270;SDS011;53180;51.344;6.152;2022-07-30T00:52:42;3.65;;;2.53;;
33270;SDS011;53180;51.344;6.152;2022-07-30T00:55:12;5.93;;;3.22;;
33270;SDS011;53180;51.344;6.152;2022-07-30T00:57:43;4.45;;;2.70;;
33270;SDS011;53180;51.344;6.152;2022-07-30T01:00:12;3.78;;;2.63;;
33270;SDS011;53180;51.344;6.152;2022-07-30T01:05:11;5.20;;;2.80;;
33270;SDS011;53180;51.344;6.152;2022-07-30T01:07:39;2.90;;;2.30;;
33270;SDS011;53180;51.344;6.152;2022-07-30T01:10:09;4.70;;;3.10;;
33270;SDS011;53180;51.344;6.152;2022-07-30T01:12:40;3.70;;;2.55;;
33270;SDS011;53180;51.344;6.152;2022-07-30T01:17:39;8.43;;;2.33;;
33270;SDS011;53180;51.344;6.152;2022-07-30T01:20:10;4.50;;;3.08;;
33270;SDS011;53180;51.344;6.152;2022-07-30T01:22:49;3.60;;;2.50;;
33270;SDS011;53180;51.344;6.152;2022-07-30T01:28:27;6.60;;;3.00;;
33270;SDS011;53180;51.344;6.152;2022-07-30T01:31:00;4.32;;;2.97;;
33270;SDS011;53180;51.344;6.152;2022-07-30T01:33:30;4.00;;;3.17;;
33270;SDS011;53180;51.344;6.152;2022-07-30T01:38:30;5.68;;;3.10;;
33270;SDS011;53180;51.344;6.152;2022-07-30T01:41:02;5.70;;;3.28;;
33270;SDS011;53180;51.344;6.152;2022-07-30T01:43:32;5.60;;;3.20;;
33270;SDS011;53180;51.344;6.152;2022-07-30T01:46:02;5.05;;;3.95;;
33270;SDS011;53180;51.344;6.152;2022-07-30T01:48:34;4.27;;;3.20;;
33270;SDS011;53180;51.344;6.152;2022-07-30T01:51:06;5.20;;;3.35;;
33270;SDS011;53180;51.344;6.152;2022-07-30T01:53:38;5.60;;;3.10;;
33270;SDS011;53180;51.344;6.152;2022-07-30T01:56:12;7.43;;;3.78;;
33270;SDS011;53180;51.344;6.152;2022-07-30T01:58:42;6.38;;;3.33;;
33270;SDS011;53180;51.344;6.152;2022-07-30T02:01:13;6.03;;;3.53;;
33270;SDS011;53180;51.344;6.152;2022-07-30T02:03:42;6.10;;;3.58;;
33270;SDS011;53180;51.344;6.152;2022-07-30T02:06:12;4.97;;;3.53;;
33270;SDS011;53180;51.344;6.152;2022-07-30T02:08:47;7.07;;;3.47;;
33270;SDS011;53180;51.344;6.152;2022-07-30T02:11:22;6.57;;;3.53;;
33270;SDS011;53180;51.344;6.152;2022-07-30T02:14:05;7.57;;;4.13;;
33270;SDS011;53180;51.344;6.152;2022-07-30T02:16:39;5.57;;;3.55;;
33270;SDS011;53180;51.344;6.152;2022-07-30T02:19:10;5.75;;;3.55;;
33270;SDS011;53180;51.344;6.152;2022-07-30T02:21:43;6.72;;;3.95;;
33270;SDS011;53180;51.344;6.152;2022-07-30T02:24:20;5.45;;;3.67;;
33270;SDS011;53180;51.344;6.152;2022-07-30T02:27:00;5.38;;;3.58;;
33270;SDS011;53180;51.344;6.152;2022-07-30T02:29:33;5.88;;;3.63;;
33270;SDS011;53180;51.344;6.152;2022-07-30T02:32:03;4.88;;;3.78;;
33270;SDS011;53180;51.344;6.152;2022-07-30T02:34:36;5.15;;;3.60;;
33270;SDS011;53180;51.344;6.152;2022-07-30T02:37:07;4.80;;;2.67;;
33270;SDS011;53180;51.344;6.152;2022-07-30T02:39:40;5.28;;;3.22;;
33270;SDS011;53180;51.344;6.152;2022-07-30T02:42:11;6.13;;;4.10;;
33270;SDS011;53180;51.344;6.152;2022-07-30T02:44:41;5.18;;;3.42;;
33270;SDS011;53180;51.344;6.152;2022-07-30T02:47:12;6.55;;;4.05;;
33270;SDS011;53180;51.344;6.152;2022-07-30T02:49:41;6.80;;;4.18;;
33270;SDS011;53180;51.344;6.152;2022-07-30T02:52:11;6.78;;;3.80;;
33270;SDS011;53180;51.344;6.152;2022-07-30T02:54:43;4.95;;;3.72;;
33270;SDS011;53180;51.344;6.152;2022-07-30T02:57:13;5.90;;;3.90;;
33270;SDS011;53180;51.344;6.152;2022-07-30T02:59:45;4.80;;;3.60;;
33270;SDS011;53180;51.344;6.152;2022-07-30T03:02:15;6.70;;;3.80;;
33270;SDS011;53180;51.344;6.152;2022-07-30T03:04:55;6.07;;;3.88;;
33270;SDS011;53180;51.344;6.152;2022-07-30T03:07:25;4.72;;;3.10;;
33270;SDS011;53180;51.344;6.152;2022-07-30T03:09:55;5.78;;;3.55;;
33270;SDS011;53180;51.344;6.152;2022-07-30T03:12:27;8.02;;;4.47;;
33270;SDS011;53180;51.344;6.152;2022-07-30T03:14:57;7.53;;;4.43;;
33270;SDS011;53180;51.344;6.152;2022-07-30T03:17:25;4.95;;;3.83;;
33270;SDS011;53180;51.344;6.152;2022-07-30T03:19:59;7.32;;;3.97;;
33270;SDS011;53180;51.344;6.152;2022-07-30T03:22:30;4.65;;;3.95;;
33270;SDS011;53180;51.344;6.152;2022-07-30T03:25:01;9.25;;;4.47;;
33270;SDS011;53180;51.344;6.152;2022-07-30T03:27:33;6.23;;;4.37;;
33270;SDS011;53180;51.344;6.152;2022-07-30T03:30:05;7.15;;;4.47;;
33270;SDS011;53180;51.344;6.152;2022-07-30T03:32:35;5.90;;;4.05;;
33270;SDS011;53180;51.344;6.152;2022-07-30T03:35:08;4.57;;;3.13;;
33270;SDS011;53180;51.344;6.152;2022-07-30T03:37:42;6.18;;;4.22;;
33270;SDS011;53180;51.344;6.152;2022-07-30T03:40:12;7.28;;;4.53;;
33270;SDS011;53180;51.344;6.152;2022-07-30T03:42:43;4.60;;;3.07;;
33270;SDS011;53180;51.344;6.152;2022-07-30T03:45:12;8.03;;;4.53;;
33270;SDS011;53180;51.344;6.152;2022-07-30T03:47:41;8.13;;;4.85;;
33270;SDS011;53180;51.344;6.152;2022-07-30T03:50:11;5.80;;;4.47;;
33270;SDS011;53180;51.344;6.152;2022-07-30T03:52:41;9.30;;;5.17;;
33270;SDS011;53180;51.344;6.152;2022-07-30T03:55:10;6.25;;;4.43;;
33270;SDS011;53180;51.344;6.152;2022-07-30T03:57:39;7.35;;;4.90;;
33270;SDS011;53180;51.344;6.152;2022-07-30T04:00:12;7.78;;;4.63;;
33270;SDS011;53180;51.344;6.152;2022-07-30T04:02:42;7.28;;;4.68;;
33270;SDS011;53180;51.344;6.152;2022-07-30T04:05:12;5.72;;;4.10;;
33270;SDS011;53180;51.344;6.152;2022-07-30T04:07:40;8.45;;;5.05;;
33270;SDS011;53180;51.344;6.152;2022-07-30T04:10:10;10.35;;;4.78;;
33270;SDS011;53180;51.344;6.152;2022-07-30T04:12:39;10.52;;;5.05;;
33270;SDS011;53180;51.344;6.152;2022-07-30T04:15:08;7.18;;;4.82;;
33270;SDS011;53180;51.344;6.152;2022-07-30T04:18:00;10.07;;;4.55;;
33270;SDS011;53180;51.344;6.152;2022-07-30T04:20:32;5.78;;;4.30;;
33270;SDS011;53180;51.344;6.152;2022-07-30T04:23:07;8.65;;;4.93;;
33270;SDS011;53180;51.344;6.152;2022-07-30T04:25:37;7.60;;;5.10;;
33270;SDS011;53180;51.344;6.152;2022-07-30T04:28:07;10.75;;;5.15;;
33270;SDS011;53180;51.344;6.152;2022-07-30T04:30:36;12.43;;;4.78;;
33270;SDS011;53180;51.344;6.152;2022-07-30T04:33:07;7.38;;;4.53;;
33270;SDS011;53180;51.344;6.152;2022-07-30T04:35:35;7.53;;;4.75;;
33270;SDS011;53180;51.344;6.152;2022-07-30T04:38:17;6.35;;;4.35;;
33270;SDS011;53180;51.344;6.152;2022-07-30T04:40:46;7.45;;;4.53;;
33270;SDS011;53180;51.344;6.152;2022-07-30T04:43:15;9.32;;;5.55;;
33270;SDS011;53180;51.344;6.152;2022-07-30T04:45:43;15.20;;;5.63;;
33270;SDS011;53180;51.344;6.152;2022-07-30T04:48:13;9.27;;;4.82;;
33270;SDS011;53180;51.344;6.152;2022-07-30T04:50:42;9.13;;;5.40;;
33270;SDS011;53180;51.344;6.152;2022-07-30T04:53:16;7.97;;;5.05;;
33270;SDS011;53180;51.344;6.152;2022-07-30T04:55:46;8.85;;;5.00;;
33270;SDS011;53180;51.344;6.152;2022-07-30T04:58:17;9.93;;;5.47;;
33270;SDS011;53180;51.344;6.152;2022-07-30T05:00:47;9.43;;;5.50;;
33270;SDS011;53180;51.344;6.152;2022-07-30T05:03:19;11.63;;;5.70;;
33270;SDS011;53180;51.344;6.152;2022-07-30T05:05:50;7.07;;;4.70;;
33270;SDS011;53180;51.344;6.152;2022-07-30T05:08:23;11.45;;;5.72;;
33270;SDS011;53180;51.344;6.152;2022-07-30T05:10:51;12.25;;;6.13;;
33270;SDS011;53180;51.344;6.152;2022-07-30T05:13:20;9.77;;;5.35;;
33270;SDS011;53180;51.344;6.152;2022-07-30T05:16:00;10.10;;;5.90;;
33270;SDS011;53180;51.344;6.152;2022-07-30T05:18:29;9.93;;;5.85;;
33270;SDS011;53180;51.344;6.152;2022-07-30T05:20:58;9.43;;;6.25;;
33270;SDS011;53180;51.344;6.152;2022-07-30T05:23:26;11.07;;;5.82;;
33270;SDS011;53180;51.344;6.152;2022-07-30T05:25:55;9.93;;;6.13;;
33270;SDS011;53180;51.344;6.152;2022-07-30T05:28:23;11.45;;;5.78;;
33270;SDS011;53180;51.344;6.152;2022-07-30T05:30:53;9.57;;;5.72;;
33270;SDS011;53180;51.344;6.152;2022-07-30T05:33:23;10.13;;;5.87;;
33270;SDS011;53180;51.344;6.152;2022-07-30T05:36:09;16.17;;;6.32;;
33270;SDS011;53180;51.344;6.152;2022-07-30T05:38:37;9.23;;;5.95;;
33270;SDS011;53180;51.344;6.152;2022-07-30T05:41:05;10.95;;;6.05;;
33270;SDS011;53180;51.344;6.152;2022-07-30T05:43:54;9.07;;;5.60;;
33270;SDS011;53180;51.344;6.152;2022-07-30T05:46:23;9.60;;;5.28;;
33270;SDS011;53180;51.344;6.152;2022-07-30T05:48:51;7.72;;;5.07;;
33270;SDS011;53180;51.344;6.152;2022-07-30T05:51:21;8.20;;;5.75;;
33270;SDS011;53180;51.344;6.152;2022-07-30T05:53:49;9.85;;;5.38;;
33270;SDS011;53180;51.344;6.152;2022-07-30T05:56:18;8.32;;;5.35;;
33270;SDS011;53180;51.344;6.152;2022-07-30T05:58:46;10.15;;;5.75;;
33270;SDS011;53180;51.344;6.152;2022-07-30T06:01:14;10.10;;;5.50;;
33270;SDS011;53180;51.344;6.152;2022-07-30T06:03:42;11.05;;;5.80;;
33270;SDS011;53180;51.344;6.152;2022-07-30T06:06:11;9.02;;;6.28;;
33270;SDS011;53180;51.344;6.152;2022-07-30T06:08:41;10.93;;;5.85;;
33270;SDS011;53180;51.344;6.152;2022-07-30T06:11:09;10.63;;;5.68;;
33270;SDS011;53180;51.344;6.152;2022-07-30T06:13:37;9.88;;;5.60;;
33270;SDS011;53180;51.344;6.152;2022-07-30T06:16:06;8.85;;;5.30;;
33270;SDS011;53180;51.344;6.152;2022-07-30T06:18:34;9.07;;;5.50;;
33270;SDS011;53180;51.344;6.152;2022-07-30T06:21:04;9.45;;;5.70;;
33270;SDS011;53180;51.344;6.152;2022-07-30T06:23:32;8.45;;;5.47;;
33270;SDS011;53180;51.344;6.152;2022-07-30T06:26:02;7.93;;;5.00;;
33270;SDS011;53180;51.344;6.152;2022-07-30T06:28:30;10.40;;;5.55;;
33270;SDS011;53180;51.344;6.152;2022-07-30T06:31:04;8.88;;;5.30;;
33270;SDS011;53180;51.344;6.152;2022-07-30T06:33:32;7.60;;;5.32;;
33270;SDS011;53180;51.344;6.152;2022-07-30T06:36:01;11.13;;;6.68;;
33270;SDS011;53180;51.344;6.152;2022-07-30T06:38:29;8.80;;;5.70;;
33270;SDS011;53180;51.344;6.152;2022-07-30T06:40:58;7.15;;;4.97;;
33270;SDS011;53180;51.344;6.152;2022-07-30T06:43:31;7.45;;;5.03;;
33270;SDS011;53180;51.344;6.152;2022-07-30T06:45:59;9.20;;;5.57;;
33270;SDS011;53180;51.344;6.152;2022-07-30T06:48:28;7.78;;;5.22;;
33270;SDS011;53180;51.344;6.152;2022-07-30T06:50:57;7.50;;;4.90;;
33270;SDS011;53180;51.344;6.152;2022-07-30T06:53:26;9.13;;;5.43;;
33270;SDS011;53180;51.344;6.152;2022-07-30T06:55:54;8.13;;;5.00;;
33270;SDS011;53180;51.344;6.152;2022-07-30T06:58:25;7.22;;;5.20;;
33270;SDS011;53180;51.344;6.152;2022-07-30T07:00:55;11.02;;;5.63;;
33270;SDS011;53180;51.344;6.152;2022-07-30T07:03:24;8.50;;;4.95;;
33270;SDS011;53180;51.344;6.152;2022-07-30T07:06:05;8.55;;;4.97;;
33270;SDS011;53180;51.344;6.152;2022-07-30T07:08:34;10.43;;;4.97;;
33270;SDS011;53180;51.344;6.152;2022-07-30T07:11:03;8.55;;;5.07;;
33270;SDS011;53180;51.344;6.152;2022-07-30T07:13:32;14.73;;;4.15;;
33270;SDS011;53180;51.344;6.152;2022-07-30T07:16:02;10.23;;;5.25;;
33270;SDS011;53180;51.344;6.152;2022-07-30T07:18:31;7.35;;;5.07;;
33270;SDS011;53180;51.344;6.152;2022-07-30T07:20:59;8.43;;;4.80;;
33270;SDS011;53180;51.344;6.152;2022-07-30T07:23:27;10.27;;;4.22;;
33270;SDS011;53180;51.344;6.152;2022-07-30T07:26:07;6.30;;;4.03;;
33270;SDS011;53180;51.344;6.152;2022-07-30T07:28:37;6.78;;;4.38;;
33270;SDS011;53180;51.344;6.152;2022-07-30T07:31:08;8.55;;;5.25;;
33270;SDS011;53180;51.344;6.152;2022-07-30T07:33:57;8.05;;;4.32;;
33270;SDS011;53180;51.344;6.152;2022-07-30T07:36:25;6.03;;;4.25;;
33270;SDS011;53180;51.344;6.152;2022-07-30T07:38:53;9.07;;;4.20;;
33270;SDS011;53180;51.344;6.152;2022-07-30T07:41:22;5.03;;;4.03;;
33270;SDS011;53180;51.344;6.152;2022-07-30T07:43:51;8.60;;;3.97;;
33270;SDS011;53180;51.344;6.152;2022-07-30T07:46:21;7.63;;;4.07;;
33270;SDS011;53180;51.344;6.152;2022-07-30T07:48:59;8.23;;;3.80;;
33270;SDS011;53180;51.344;6.152;2022-07-30T07:51:28;6.50;;;4.78;;
33270;SDS011;53180;51.344;6.152;2022-07-30T07:54:13;5.80;;;4.40;;
33270;SDS011;53180;51.344;6.152;2022-07-30T07:56:49;5.22;;;3.55;;
33270;SDS011;53180;51.344;6.152;2022-07-30T07:59:22;5.10;;;3.83;;
33270;SDS011;53180;51.344;6.152;2022-07-30T08:02:07;6.68;;;3.53;;
33270;SDS011;53180;51.344;6.152;2022-07-30T08:04:35;7.68;;;3.97;;
33270;SDS011;53180;51.344;6.152;2022-07-30T08:07:03;5.05;;;3.15;;
33270;SDS011;53180;51.344;6.152;2022-07-30T08:09:32;8.45;;;3.40;;
33270;SDS011;53180;51.344;6.152;2022-07-30T08:12:10;5.18;;;3.50;;
33270;SDS011;53180;51.344;6.152;2022-07-30T08:14:38;5.00;;;2.92;;
33270;SDS011;53180;51.344;6.152;2022-07-30T08:17:08;9.02;;;2.45;;
33270;SDS011;53180;51.344;6.152;2022-07-30T08:19:37;4.13;;;2.83;;
33270;SDS011;53180;51.344;6.152;2022-07-30T08:22:05;9.48;;;2.88;;
33270;SDS011;53180;51.344;6.152;2022-07-30T08:24:34;6.28;;;3.33;;
33270;SDS011;53180;51.344;6.152;2022-07-30T08:27:02;4.78;;;3.42;;
33270;SDS011;53180;51.344;6.152;2022-07-30T08:29:31;6.20;;;2.47;;
33270;SDS011;53180;51.344;6.152;2022-07-30T08:31:59;4.53;;;2.47;;
33270;SDS011;53180;51.344;6.152;2022-07-30T08:34:29;3.65;;;2.50;;
33270;SDS011;53180;51.344;6.152;2022-07-30T08:36:58;7.53;;;2.38;;
33270;SDS011;53180;51.344;6.152;2022-07-30T08:39:26;5.55;;;3.13;;
33270;SDS011;53180;51.344;6.152;2022-07-30T08:41:55;4.15;;;2.50;;
33270;SDS011;53180;51.344;6.152;2022-07-30T08:44:25;5.00;;;2.60;;
33270;SDS011;53180;51.344;6.152;2022-07-30T08:46:55;5.50;;;2.83;;
33270;SDS011;53180;51.344;6.152;2022-07-30T08:49:26;5.15;;;3.05;;
33270;SDS011;53180;51.344;6.152;2022-07-30T08:51:57;6.22;;;3.50;;
33270;SDS011;53180;51.344;6.152;2022-07-30T08:54:25;7.32;;;3.13;;
33270;SDS011;53180;51.344;6.152;2022-07-30T08:56:54;4.60;;;3.20;;
33270;SDS011;53180;51.344;6.152;2022-07-30T08:59:24;3.43;;;2.40;;
33270;SDS011;53180;51.344;6.152;2022-07-30T09:02:13;4.07;;;2.22;;
33270;SDS011;53180;51.344;6.152;2022-07-30T09:04:52;5.55;;;2.55;;
33270;SDS011;53180;51.344;6.152;2022-07-30T09:07:22;4.15;;;2.67;;
33270;SDS011;53180;51.344;6.152;2022-07-30T09:09:51;16.45;;;2.97;;
33270;SDS011;53180;51.344;6.152;2022-07-30T09:12:32;3.08;;;2.15;;
33270;SDS011;53180;51.344;6.152;2022-07-30T09:15:05;3.47;;;2.17;;
33270;SDS011;53180;51.344;6.152;2022-07-30T09:17:44;3.03;;;2.03;;
33270;SDS011;53180;51.344;6.152;2022-07-30T09:20:15;4.00;;;1.73;;
33270;SDS011;53180;51.344;6.152;2022-07-30T09:22:46;4.50;;;1.80;;
33270;SDS011;53180;51.344;6.152;2022-07-30T09:25:32;2.53;;;1.70;;
33270;SDS011;53180;51.344;6.152;2022-07-30T09:28:03;2.83;;;1.92;;
33270;SDS011;53180;51.344;6.152;2022-07-30T09:30:43;4.55;;;1.77;;
33270;SDS011;53180;51.344;6.152;2022-07-30T09:33:13;2.58;;;1.35;;
33270;SDS011;53180;51.344;6.152;2022-07-30T09:35:43;1.88;;;1.20;;
33270;SDS011;53180;51.344;6.152;2022-07-30T09:38:12;2.00;;;1.50;;
33270;SDS011;53180;51.344;6.152;2022-07-30T09:40:41;3.80;;;1.60;;
33270;SDS011;53180;51.344;6.152;2022-07-30T09:43:22;3.85;;;1.25;;
33270;SDS011;53180;51.344;6.152;2022-07-30T09:48:25;2.73;;;1.23;;
33270;SDS011;53180;51.344;6.152;2022-07-30T09:50:54;1.20;;;0.93;;
33270;SDS011;53180;51.344;6.152;2022-07-30T09:53:24;2.08;;;1.38;;
33270;SDS011;53180;51.344;6.152;2022-07-30T09:55:55;3.17;;;1.30;;
33270;SDS011;53180;51.344;6.152;2022-07-30T09:58:36;4.72;;;1.38;;
33270;SDS011;53180;51.344;6.152;2022-07-30T10:01:10;1.60;;;0.88;;
33270;SDS011;53180;51.344;6.152;2022-07-30T10:03:40;1.27;;;0.90;;
33270;SDS011;53180;51.344;6.152;2022-07-30T10:06:11;3.92;;;1.58;;
33270;SDS011;53180;51.344;6.152;2022-07-30T10:08:43;0.98;;;0.77;;
33270;SDS011;53180;51.344;6.152;2022-07-30T10:11:14;1.55;;;0.80;;
33270;SDS011;53180;51.344;6.152;2022-07-30T10:13:49;2.05;;;0.75;;
33270;SDS011;53180;51.344;6.152;2022-07-30T10:16:21;4.65;;;0.90;;
33270;SDS011;53180;51.344;6.152;2022-07-30T10:18:54;1.70;;;0.90;;
33270;SDS011;53180;51.344;6.152;2022-07-30T10:24:03;0.88;;;0.60;;
33270;SDS011;53180;51.344;6.152;2022-07-30T10:26:32;1.80;;;0.50;;
33270;SDS011;53180;51.344;6.152;2022-07-30T10:29:01;1.13;;;0.68;;
33270;SDS011;53180;51.344;6.152;2022-07-30T10:31:32;0.68;;;0.40;;
33270;SDS011;53180;51.344;6.152;2022-07-30T10:34:17;2.78;;;0.68;;
33270;SDS011;53180;51.344;6.152;2022-07-30T10:36:51;1.20;;;0.70;;
33270;SDS011;53180;51.344;6.152;2022-07-30T10:39:26;1.20;;;0.75;;
33270;SDS011;53180;51.344;6.152;2022-07-30T10:42:05;1.48;;;0.98;;
33270;SDS011;53180;51.344;6.152;2022-07-30T10:44:57;2.63;;;0.52;;
33270;SDS011;53180;51.344;6.152;2022-07-30T10:47:43;1.73;;;0.60;;
33270;SDS011;53180;51.344;6.152;2022-07-30T10:50:15;1.35;;;0.73;;
33270;SDS011;53180;51.344;6.152;2022-07-30T10:52:48;0.80;;;0.55;;
33270;SDS011;53180;51.344;6.152;2022-07-30T10:55:20;2.13;;;0.70;;
33270;SDS011;53180;51.344;6.152;2022-07-30T10:58:05;1.40;;;0.60;;
33270;SDS011;53180;51.344;6.152;2022-07-30T11:00:56;1.60;;;0.57;;
33270;SDS011;53180;51.344;6.152;2022-07-30T11:03:25;0.80;;;0.60;;
33270;SDS011;53180;51.344;6.152;2022-07-30T11:09:05;1.27;;;0.68;;
33270;SDS011;53180;51.344;6.152;2022-07-30T11:12:08;2.25;;;0.68;;
33270;SDS011;53180;51.344;6.152;2022-07-30T11:14:53;0.75;;;0.50;;
33270;SDS011;53180;51.344;6.152;2022-07-30T11:20:30;2.80;;;0.50;;
33270;SDS011;53180;51.344;6.152;2022-07-30T11:26:06;2.47;;;0.63;;
33270;SDS011;53180;51.344;6.152;2022-07-30T11:28:41;0.43;;;0.35;;
33270;SDS011;53180;51.344;6.152;2022-07-30T11:31:25;1.33;;;0.60;;
33270;SDS011;53180;51.344;6.152;2022-07-30T11:34:23;2.67;;;0.50;;
33270;SDS011;53180;51.344;6.152;2022-07-30T11:37:04;1.10;;;0.45;;
33270;SDS011;53180;51.344;6.152;2022-07-30T11:40:09;1.08;;;0.50;;
33270;SDS011;53180;51.344;6.152;2022-07-30T11:42:39;1.23;;;0.47;;
33270;SDS011;53180;51.344;6.152;2022-07-30T11:45:23;0.77;;;0.38;;
33270;SDS011;53180;51.344;6.152;2022-07-30T11:47:56;0.43;;;0.40;;
33270;SDS011;53180;51.344;6.152;2022-07-30T11:50:29;0.30;;;0.30;;
33270;SDS011;53180;51.344;6.152;2022-07-30T11:53:00;1.08;;;0.30;;
33270;SDS011;53180;51.344;6.152;2022-07-30T11:55:31;1.25;;;0.47;;
33270;SDS011;53180;51.344;6.152;2022-07-30T11:58:03;0.95;;;0.45;;
33270;SDS011;53180;51.344;6.152;2022-07-30T12:00:35;4.45;;;2.15;;
33270;SDS011;53180;51.344;6.152;2022-07-30T12:03:06;20.00;;;10.13;;
33270;SDS011;53180;51.344;6.152;2022-07-30T12:05:37;2.55;;;1.38;;
33270;SDS011;53180;51.344;6.152;2022-07-30T12:08:06;7.03;;;3.10;;
33270;SDS011;53180;51.344;6.152;2022-07-30T12:10:56;2.97;;;1.30;;
33270;SDS011;53180;51.344;6.152;2022-07-30T12:13:26;3.20;;;0.85;;
33270;SDS011;53180;51.344;6.152;2022-07-30T12:16:12;3.60;;;0.50;;
33270;SDS011;53180;51.344;6.152;2022-07-30T12:18:45;1.38;;;0.50;;
33270;SDS011;53180;51.344;6.152;2022-07-30T12:21:14;3.38;;;0.70;;
33270;SDS011;53180;51.344;6.152;2022-07-30T12:23:52;0.65;;;0.30;;
33270;SDS011;53180;51.344;6.152;2022-07-30T12:26:24;0.77;;;0.40;;
33270;SDS011;53180;51.344;6.152;2022-07-30T12:28:54;0.98;;;0.60;;
33270;SDS011;53180;51.344;6.152;2022-07-30T12:31:26;2.70;;;0.50;;
33270;SDS011;53180;51.344;6.152;2022-07-30T12:33:54;0.30;;;0.30;;
33270;SDS011;53180;51.344;6.152;2022-07-30T12:36:25;1.47;;;0.70;;
33270;SDS011;53180;51.344;6.152;2022-07-30T12:38:57;3.13;;;0.77;;
33270;SDS011;53180;51.344;6.152;2022-07-30T12:41:42;1.08;;;0.55;;
33270;SDS011;53180;51.344;6.152;2022-07-30T12:47:16;2.08;;;0.75;;
33270;SDS011;53180;51.344;6.152;2022-07-30T12:49:46;0.32;;;0.30;;
33270;SDS011;53180;51.344;6.152;2022-07-30T12:52:22;1.45;;;0.77;;
33270;SDS011;53180;51.344;6.152;2022-07-30T12:55:02;0.43;;;0.32;;
33270;SDS011;53180;51.344;6.152;2022-07-30T12:57:56;2.20;;;0.50;;
33270;SDS011;53180;51.344;6.152;2022-07-30T13:00:33;0.47;;;0.30;;
33270;SDS011;53180;51.344;6.152;2022-07-30T13:03:22;0.73;;;0.50;;
33270;SDS011;53180;51.344;6.152;2022-07-30T13:05:54;2.00;;;0.70;;
33270;SDS011;53180;51.344;6.152;2022-07-30T13:11:13;1.60;;;0.57;;
33270;SDS011;53180;51.344;6.152;2022-07-30T13:13:42;1.35;;;0.75;;
33270;SDS011;53180;51.344;6.152;2022-07-30T13:16:11;2.15;;;0.50;;
33270;SDS011;53180;51.344;6.152;2022-07-30T13:18:41;3.05;;;0.40;;
33270;SDS011;53180;51.344;6.152;2022-07-30T13:21:09;0.63;;;0.53;;
33270;SDS011;53180;51.344;6.152;2022-07-30T13:23:39;1.17;;;0.50;;
33270;SDS011;53180;51.344;6.152;2022-07-30T13:26:08;2.25;;;0.50;;
33270;SDS011;53180;51.344;6.152;2022-07-30T13:28:37;0.85;;;0.50;;
33270;SDS011;53180;51.344;6.152;2022-07-30T13:31:06;0.30;;;0.30;;
33270;SDS011;53180;51.344;6.152;2022-07-30T13:33:35;0.95;;;0.50;;
33270;SDS011;53180;51.344;6.152;2022-07-30T13:36:05;2.97;;;1.63;;
33270;SDS011;53180;51.344;6.152;2022-07-30T13:38:34;1.27;;;0.77;;
33270;SDS011;53180;51.344;6.152;2022-07-30T13:41:03;4.90;;;1.73;;
33270;SDS011;53180;51.344;6.152;2022-07-30T13:43:31;3.70;;;0.60;;
33270;SDS011;53180;51.344;6.152;2022-07-30T13:46:00;2.53;;;0.90;;
33270;SDS011;53180;51.344;6.152;2022-07-30T13:48:29;5.20;;;2.38;;
33270;SDS011;53180;51.344;6.152;2022-07-30T13:50:58;1.25;;;0.70;;
33270;SDS011;53180;51.344;6.152;2022-07-30T13:53:28;0.95;;;0.52;;
33270;SDS011;53180;51.344;6.152;2022-07-30T13:55:57;2.15;;;0.38;;
33270;SDS011;53180;51.344;6.152;2022-07-30T13:58:25;2.33;;;0.73;;
33270;SDS011;53180;51.344;6.152;2022-07-30T14:01:01;0.43;;;0.40;;
33270;SDS011;53180;51.344;6.152;2022-07-30T14:03:32;0.60;;;0.52;;
33270;SDS011;53180;51.344;6.152;2022-07-30T14:06:01;1.60;;;0.70;;
33270;SDS011;53180;51.344;6.152;2022-07-30T14:08:38;0.50;;;0.40;;
33270;SDS011;53180;51.344;6.152;2022-07-30T14:11:07;0.88;;;0.40;;
33270;SDS011;53180;51.344;6.152;2022-07-30T14:13:35;0.88;;;0.50;;
33270;SDS011;53180;51.344;6.152;2022-07-30T14:16:03;1.45;;;0.45;;
33270;SDS011;53180;51.344;6.152;2022-07-30T14:18:52;0.85;;;0.50;;
33270;SDS011;53180;51.344;6.152;2022-07-30T14:21:20;2.55;;;0.52;;
33270;SDS011;53180;51.344;6.152;2022-07-30T14:23:50;1.75;;;0.75;;
33270;SDS011;53180;51.344;6.152;2022-07-30T14:26:20;2.92;;;0.60;;
33270;SDS011;53180;51.344;6.152;2022-07-30T14:28:48;0.70;;;0.60;;
33270;SDS011;53180;51.344;6.152;2022-07-30T14:31:16;2.03;;;0.50;;
33270;SDS011;53180;51.344;6.152;2022-07-30T14:33:45;1.73;;;0.50;;
33270;SDS011;53180;51.344;6.152;2022-07-30T14:36:13;1.52;;;0.60;;
33270;SDS011;53180;51.344;6.152;2022-07-30T14:38:41;0.90;;;0.50;;
33270;SDS011;53180;51.344;6.152;2022-07-30T14:41:11;0.88;;;0.60;;
33270;SDS011;53180;51.344;6.152;2022-07-30T14:43:39;1.90;;;0.60;;
33270;SDS011;53180;51.344;6.152;2022-07-30T14:46:08;0.73;;;0.50;;
33270;SDS011;53180;51.344;6.152;2022-07-30T14:48:36;1.30;;;0.73;;
33270;SDS011;53180;51.344;6.152;2022-07-30T14:51:04;2.63;;;1.42;;
33270;SDS011;53180;51.344;6.152;2022-07-30T14:53:44;1.55;;;0.70;;
33270;SDS011;53180;51.344;6.152;2022-07-30T14:56:14;0.63;;;0.40;;
33270;SDS011;53180;51.344;6.152;2022-07-30T14:58:43;0.43;;;0.35;;
33270;SDS011;53180;51.344;6.152;2022-07-30T15:01:11;1.70;;;0.45;;
33270;SDS011;53180;51.344;6.152;2022-07-30T15:03:41;1.30;;;0.57;;
33270;SDS011;53180;51.344;6.152;2022-07-30T15:06:10;2.45;;;0.63;;
33270;SDS011;53180;51.344;6.152;2022-07-30T15:08:40;3.22;;;0.98;;
33270;SDS011;53180;51.344;6.152;2022-07-30T15:11:11;1.85;;;0.60;;
33270;SDS011;53180;51.344;6.152;2022-07-30T15:13:41;1.25;;;0.40;;
33270;SDS011;53180;51.344;6.152;2022-07-30T15:16:15;1.92;;;0.60;;
33270;SDS011;53180;51.344;6.152;2022-07-30T15:18:44;5.55;;;0.50;;
33270;SDS011;53180;51.344;6.152;2022-07-30T15:21:12;0.90;;;0.52;;
33270;SDS011;53180;51.344;6.152;2022-07-30T15:23:41;1.02;;;0.60;;
33270;SDS011;53180;51.344;6.152;2022-07-30T15:26:10;0.85;;;0.70;;
33270;SDS011;53180;51.344;6.152;2022-07-30T15:28:38;0.98;;;0.50;;
33270;SDS011;53180;51.344;6.152;2022-07-30T15:31:08;0.73;;;0.50;;
33270;SDS011;53180;51.344;6.152;2022-07-30T15:33:36;1.58;;;0.60;;
33270;SDS011;53180;51.344;6.152;2022-07-30T15:36:08;1.08;;;0.73;;
33270;SDS011;53180;51.344;6.152;2022-07-30T15:38:36;21.98;;;1.27;;
33270;SDS011;53180;51.344;6.152;2022-07-30T15:41:05;0.90;;;0.60;;
33270;SDS011;53180;51.344;6.152;2022-07-30T15:43:38;0.65;;;0.50;;